createdAt,value
2019-01-27T00:00:10.524Z,4.80
2019-01-27T00:02:39.205Z,4.70
2019-01-27T00:05:28.469Z,4.70
2019-01-27T00:07:56.869Z,4.70
2019-01-27T00:10:25.581Z,4.70
2019-01-27T00:12:54.282Z,4.70
2019-01-27T00:15:22.783Z,4.60
2019-01-27T00:17:51.175Z,4.70
2019-01-27T00:20:22.937Z,4.70
2019-01-27T00:22:51.329Z,4.70
2019-01-27T00:25:19.734Z,4.70
2019-01-27T00:27:48.124Z,4.70
2019-01-27T00:30:23.669Z,4.70
2019-01-27T00:32:52.076Z,4.70
2019-01-27T00:35:20.725Z,4.70
2019-01-27T00:37:49.126Z,4.80
2019-01-27T00:40:18.706Z,4.80
2019-01-27T00:42:47.336Z,4.80
2019-01-27T00:45:17.935Z,4.80
2019-01-27T00:47:46.337Z,4.70
2019-01-27T00:50:17.143Z,4.70
2019-01-27T00:52:46.035Z,4.70
2019-01-27T00:55:20.530Z,4.70
2019-01-27T00:57:49.006Z,4.80
2019-01-27T01:00:28.411Z,4.70
2019-01-27T01:02:56.979Z,4.80
2019-01-27T01:05:25.438Z,4.80
2019-01-27T01:07:54.181Z,4.80
2019-01-27T01:10:24.052Z,4.80
2019-01-27T01:12:52.669Z,4.80
2019-01-27T01:15:21.419Z,4.90
2019-01-27T01:17:49.882Z,4.80
2019-01-27T01:20:22.675Z,4.80
2019-01-27T01:22:51.942Z,4.80
2019-01-27T01:25:24.802Z,4.80
2019-01-27T01:27:53.343Z,4.90
2019-01-27T01:30:27.342Z,4.90
2019-01-27T01:32:56.079Z,4.90
2019-01-27T01:35:24.706Z,4.80
2019-01-27T01:37:53.166Z,4.80
2019-01-27T01:40:21.551Z,4.80
2019-01-27T01:42:49.946Z,4.70
2019-01-27T01:45:29.827Z,4.70
2019-01-27T01:47:58.232Z,4.70
2019-01-27T01:50:26.613Z,4.70
2019-01-27T01:52:55.423Z,4.70
2019-01-27T01:55:23.816Z,4.70
2019-01-27T01:57:52.517Z,4.70
2019-01-27T02:00:23.020Z,4.80
2019-01-27T02:02:51.429Z,4.70
2019-01-27T02:05:20.665Z,4.70
2019-01-27T02:07:49.435Z,4.70
2019-01-27T02:10:22.519Z,4.70
2019-01-27T02:12:51.890Z,4.70
2019-01-27T02:15:32.187Z,4.70
2019-01-27T02:18:00.593Z,4.60
2019-01-27T02:20:29.065Z,4.60
2019-01-27T02:22:57.690Z,4.60
2019-01-27T02:25:26.094Z,4.60
2019-01-27T02:27:54.482Z,4.50
2019-01-27T02:30:23.227Z,4.50
2019-01-27T02:32:51.866Z,4.50
2019-01-27T02:35:20.478Z,4.50
2019-01-27T02:37:48.858Z,4.50
2019-01-27T02:40:17.264Z,4.50
2019-01-27T02:42:45.665Z,4.60
2019-01-27T02:45:18.633Z,4.50
2019-01-27T02:47:47.026Z,4.60
2019-01-27T02:50:15.791Z,4.60
2019-01-27T02:52:44.190Z,4.50
2019-01-27T02:55:12.698Z,4.60
2019-01-27T02:57:41.087Z,4.60
2019-01-27T03:00:18.329Z,4.60
2019-01-27T03:02:46.728Z,4.60
2019-01-27T03:05:16.833Z,4.50
2019-01-27T03:07:45.225Z,4.50
2019-01-27T03:10:16.067Z,4.60
2019-01-27T03:12:44.525Z,4.60
2019-01-27T03:15:14.487Z,4.60
2019-01-27T03:17:42.853Z,4.60
2019-01-27T03:20:12.489Z,4.60
2019-01-27T03:22:41.497Z,4.70
2019-01-27T03:25:17.681Z,4.70
2019-01-27T03:27:46.070Z,4.60
2019-01-27T03:30:19.506Z,4.60
2019-01-27T03:32:48.375Z,4.70
2019-01-27T03:35:16.875Z,4.70
2019-01-27T03:37:45.522Z,4.80
2019-01-27T03:40:16.649Z,4.70
2019-01-27T03:42:45.460Z,4.70
2019-01-27T03:45:16.755Z,4.70
2019-01-27T03:47:45.213Z,4.70
2019-01-27T03:50:16.377Z,4.70
2019-01-27T03:52:44.847Z,4.90
2019-01-27T03:55:21.557Z,4.80
2019-01-27T03:57:49.950Z,4.70
2019-01-27T04:00:22.759Z,4.70
2019-01-27T04:02:51.403Z,4.70
2019-01-27T04:05:20.536Z,4.70
2019-01-27T04:07:49.276Z,4.70
2019-01-27T04:10:19.908Z,4.70
2019-01-27T04:12:48.370Z,4.80
2019-01-27T04:15:17.039Z,4.80
2019-01-27T04:17:45.510Z,4.80
2019-01-27T04:20:16.132Z,4.80
2019-01-27T04:22:44.920Z,4.90
2019-01-27T04:25:14.197Z,4.90
2019-01-27T04:27:42.895Z,4.80
2019-01-27T04:30:22.094Z,4.80
2019-01-27T04:32:50.736Z,4.70
2019-01-27T04:35:19.361Z,4.80
2019-01-27T04:37:47.752Z,4.70
2019-01-27T04:40:20.786Z,4.70
2019-01-27T04:42:49.174Z,4.80
2019-01-27T04:45:28.093Z,4.80
2019-01-27T04:47:56.490Z,4.70
2019-01-27T04:50:25.018Z,4.70
2019-01-27T04:52:53.414Z,4.60
2019-01-27T04:55:21.874Z,4.60
2019-01-27T04:57:50.269Z,4.60
2019-01-27T05:00:28.237Z,4.50
2019-01-27T05:02:58.405Z,4.50
2019-01-27T05:05:27.160Z,4.50
2019-01-27T05:07:55.563Z,4.60
2019-01-27T05:10:23.945Z,4.70
2019-01-27T05:12:52.349Z,4.60
2019-01-27T05:15:23.868Z,4.50
2019-01-27T05:17:52.316Z,4.50
2019-01-27T05:20:20.701Z,4.60
2019-01-27T05:22:49.543Z,4.70
2019-01-27T05:25:18.494Z,4.70
2019-01-27T05:27:47.241Z,4.80
2019-01-27T05:30:23.044Z,4.80
2019-01-27T05:32:51.497Z,4.90
2019-01-27T05:35:19.884Z,4.90
2019-01-27T05:37:48.342Z,4.80
2019-01-27T05:40:20.963Z,4.90
2019-01-27T05:42:49.426Z,4.80
2019-01-27T05:45:20.227Z,4.90
2019-01-27T05:47:48.695Z,4.80
2019-01-27T05:50:18.389Z,4.70
2019-01-27T05:52:46.853Z,4.70
2019-01-27T05:55:19.906Z,4.80
2019-01-27T05:57:48.366Z,4.70
2019-01-27T06:00:24.474Z,4.70
2019-01-27T06:02:52.866Z,4.70
2019-01-27T06:05:21.260Z,4.70
2019-01-27T06:07:49.651Z,4.70
2019-01-27T06:10:18.118Z,4.70
2019-01-27T06:12:46.508Z,4.70
2019-01-27T06:15:18.712Z,4.70
2019-01-27T06:17:47.107Z,4.80
2019-01-27T06:20:16.639Z,4.80
2019-01-27T06:22:45.035Z,4.80
2019-01-27T06:25:16.045Z,4.70
2019-01-27T06:27:44.486Z,4.80
2019-01-27T06:30:21.132Z,4.70
2019-01-27T06:33:07.521Z,4.70
2019-01-27T06:35:36.725Z,4.70
2019-01-27T06:38:05.182Z,4.60
2019-01-27T06:40:33.585Z,4.60
2019-01-27T06:43:01.978Z,4.60
2019-01-27T06:45:30.615Z,4.60
2019-01-27T06:47:58.995Z,4.70
2019-01-27T06:50:27.387Z,4.70
2019-01-27T06:52:56.022Z,4.80
2019-01-27T06:55:24.480Z,4.80
2019-01-27T06:57:53.106Z,4.90
2019-01-27T07:00:25.652Z,4.90
2019-01-27T07:02:55.700Z,4.80
2019-01-27T07:05:28.550Z,4.80
2019-01-27T07:08:11.550Z,4.90
2019-01-27T07:10:53.435Z,4.90
2019-01-27T07:13:25.924Z,4.90
2019-01-27T07:15:56.200Z,5.00
2019-01-27T07:18:26.233Z,5.00
2019-01-27T07:20:58.997Z,5.00
2019-01-27T07:23:29.020Z,5.00
2019-01-27T07:26:10.784Z,5.00
2019-01-27T07:28:40.813Z,5.00
2019-01-27T07:31:10.850Z,5.00
2019-01-27T07:33:57.347Z,5.00
2019-01-27T07:36:33.614Z,5.00
2019-01-27T07:39:06.314Z,5.00
2019-01-27T07:41:36.362Z,5.00
2019-01-27T07:44:12.782Z,5.00
2019-01-27T07:46:42.817Z,5.00
2019-01-27T07:49:12.850Z,5.00
2019-01-27T07:51:42.885Z,5.00
2019-01-27T07:54:12.918Z,5.00
2019-01-27T07:56:42.977Z,5.00
2019-01-27T07:59:15.913Z,5.00
2019-01-27T08:01:45.947Z,5.00
2019-01-27T08:04:22.185Z,5.00
2019-01-27T08:06:52.322Z,5.00
2019-01-27T08:09:22.533Z,5.00
2019-01-27T08:11:52.946Z,5.00
2019-01-27T08:14:38.234Z,5.00
2019-01-27T08:17:08.353Z,5.00
2019-01-27T08:19:38.463Z,5.00
2019-01-27T08:22:08.727Z,5.00
2019-01-27T08:24:41.782Z,5.00
2019-01-27T08:27:13.337Z,5.00
2019-01-27T08:29:43.526Z,5.00
2019-01-27T08:32:19.588Z,5.00
2019-01-27T08:34:53.010Z,5.00
2019-01-27T08:37:23.623Z,5.10
2019-01-27T08:40:11.424Z,5.20
2019-01-27T08:42:44.485Z,5.10
2019-01-27T08:45:20.465Z,5.10
2019-01-27T08:47:49.230Z,5.10
2019-01-27T08:50:18.034Z,5.00
2019-01-27T08:52:46.613Z,5.00
2019-01-27T08:55:15.262Z,5.00
2019-01-27T08:57:43.818Z,5.20
2019-01-27T09:00:21.148Z,5.40
2019-01-27T09:03:07.888Z,5.60
2019-01-27T09:05:56.123Z,5.70
2019-01-27T09:08:26.335Z,6.20
2019-01-27T09:11:08.386Z,6.50
2019-01-27T09:13:41.401Z,6.50
2019-01-27T09:16:29.821Z,6.50
2019-01-27T09:18:59.874Z,6.40
2019-01-27T09:21:42.127Z,6.50
2019-01-27T09:24:30.402Z,6.40
2019-01-27T09:27:06.642Z,6.30
2019-01-27T09:29:36.673Z,6.30
2019-01-27T09:32:12.963Z,6.30
2019-01-27T09:34:48.843Z,6.30
2019-01-27T09:37:24.761Z,6.20
2019-01-27T09:40:12.897Z,6.10
2019-01-27T09:42:48.819Z,6.10
2019-01-27T09:45:19.387Z,6.00
2019-01-27T09:48:05.683Z,5.90
2019-01-27T09:50:38.247Z,5.90
2019-01-27T09:53:11.417Z,6.00
2019-01-27T09:55:55.118Z,5.90
2019-01-27T09:58:25.211Z,6.00
2019-01-27T10:00:58.310Z,6.20
2019-01-27T10:03:37.351Z,6.40
2019-01-27T10:06:07.789Z,6.50
2019-01-27T10:08:40.972Z,6.50
2019-01-27T10:11:11.077Z,6.40
2019-01-27T10:13:41.109Z,6.60
2019-01-27T10:16:16.906Z,6.70
2019-01-27T10:18:52.437Z,7.10
2019-01-27T10:21:39.078Z,7.50
2019-01-27T10:24:19.361Z,7.70
2019-01-27T10:27:05.976Z,7.40
2019-01-27T10:29:36.191Z,7.10
2019-01-27T10:32:12.958Z,7.10
2019-01-27T10:34:52.282Z,6.90
2019-01-27T10:37:22.477Z,6.70
2019-01-27T10:39:52.668Z,6.60
2019-01-27T10:42:22.759Z,6.60
2019-01-27T10:44:55.522Z,6.50
2019-01-27T10:47:34.702Z,6.60
2019-01-27T10:50:05.726Z,6.60
2019-01-27T10:52:38.683Z,6.60
2019-01-27T10:55:27.964Z,6.60
2019-01-27T10:58:07.447Z,6.70
2019-01-27T11:00:52.706Z,6.60
2019-01-27T11:03:29.876Z,6.60
2019-01-27T11:06:16.370Z,6.60
2019-01-27T11:08:52.230Z,6.60
2019-01-27T11:11:22.501Z,6.50
2019-01-27T11:13:53.164Z,6.50
2019-01-27T11:16:23.293Z,6.50
2019-01-27T11:18:56.541Z,6.50
2019-01-27T11:21:28.169Z,6.40
2019-01-27T11:24:14.658Z,6.30
2019-01-27T11:26:44.880Z,6.30
2019-01-27T11:29:15.009Z,6.20
2019-01-27T11:31:54.410Z,6.20
2019-01-27T11:34:27.617Z,6.20
2019-01-27T11:36:57.962Z,6.20
2019-01-27T11:39:28.409Z,6.10
2019-01-27T11:42:07.524Z,6.10
2019-01-27T11:44:43.317Z,6.10
2019-01-27T11:47:13.427Z,6.10
2019-01-27T11:49:43.541Z,6.10
2019-01-27T11:52:15.635Z,6.00
2019-01-27T11:54:42.822Z,6.00
2019-01-27T11:57:11.290Z,6.00
2019-01-27T11:59:39.689Z,6.00
2019-01-27T12:02:08.261Z,5.90
2019-01-27T12:04:36.830Z,5.90
2019-01-27T12:07:05.513Z,5.80
2019-01-27T12:09:34.022Z,5.80
2019-01-27T12:12:02.441Z,5.80
2019-01-27T12:14:30.964Z,5.70
2019-01-27T12:16:59.642Z,5.70
2019-01-27T12:19:28.374Z,5.70
2019-01-27T12:21:57.276Z,5.70
2019-01-27T12:24:25.856Z,5.70
2019-01-27T12:26:54.344Z,5.80
2019-01-27T12:29:23.046Z,5.80
2019-01-27T12:31:51.478Z,5.90
2019-01-27T12:34:20.061Z,6.00
2019-01-27T12:36:49.941Z,6.10
2019-01-27T12:39:18.621Z,6.10
2019-01-27T12:41:47.086Z,6.10
2019-01-27T12:44:24.759Z,6.10
2019-01-27T12:46:53.143Z,6.10
2019-01-27T12:49:21.905Z,6.10
2019-01-27T12:51:50.601Z,6.10
2019-01-27T12:54:19.376Z,6.00
2019-01-27T12:56:47.841Z,6.10
2019-01-27T12:59:16.542Z,6.10
2019-01-27T13:01:45.021Z,6.10
2019-01-27T13:04:13.622Z,6.00
2019-01-27T13:06:42.111Z,6.10
2019-01-27T13:09:10.785Z,6.10
2019-01-27T13:11:39.482Z,6.10
2019-01-27T13:14:07.961Z,6.10
2019-01-27T13:16:36.655Z,6.10
2019-01-27T13:19:05.525Z,6.10
2019-01-27T13:21:34.086Z,6.20
2019-01-27T13:24:02.658Z,6.20
2019-01-27T13:26:31.367Z,6.20
2019-01-27T13:29:00.059Z,6.20
2019-01-27T13:31:28.542Z,6.20
2019-01-27T13:33:57.250Z,6.30
2019-01-27T13:36:25.798Z,6.30
2019-01-27T13:38:54.297Z,6.30
2019-01-27T13:41:23.130Z,6.40
2019-01-27T13:43:51.639Z,6.40
2019-01-27T13:46:20.289Z,6.40
2019-01-27T13:48:49.035Z,6.50
2019-01-27T13:51:17.824Z,6.50
2019-01-27T13:53:46.221Z,6.40
2019-01-27T13:56:14.802Z,6.40
2019-01-27T13:58:43.697Z,6.40
2019-01-27T14:01:12.624Z,6.40
2019-01-27T14:03:41.497Z,6.30
2019-01-27T14:06:09.971Z,6.30
2019-01-27T14:08:38.821Z,6.20
2019-01-27T14:11:08.143Z,6.30
2019-01-27T14:13:36.532Z,6.30
2019-01-27T14:16:05.306Z,6.20
2019-01-27T14:18:33.772Z,6.20
2019-01-27T14:21:02.493Z,6.20
2019-01-27T14:23:31.207Z,6.30
2019-01-27T14:25:59.668Z,6.30
2019-01-27T14:28:28.319Z,6.20
2019-01-27T14:30:56.733Z,6.20
2019-01-27T14:33:25.147Z,6.20
2019-01-27T14:35:53.682Z,6.10
2019-01-27T14:38:22.561Z,6.10
2019-01-27T14:40:51.193Z,6.10
2019-01-27T14:43:19.729Z,6.00
2019-01-27T14:45:48.116Z,5.90
2019-01-27T14:48:16.592Z,5.90
2019-01-27T14:50:47.432Z,5.90
2019-01-27T14:53:16.374Z,6.00
2019-01-27T14:55:45.622Z,5.90
2019-01-27T14:58:14.520Z,5.80
2019-01-27T15:00:44.653Z,5.80
2019-01-27T15:03:14.255Z,5.80
2019-01-27T15:05:43.265Z,5.80
2019-01-27T15:08:13.056Z,5.80
2019-01-27T15:10:42.102Z,5.80
2019-01-27T15:13:10.801Z,5.70
2019-01-27T15:15:40.324Z,5.70
2019-01-27T15:18:09.113Z,5.70
2019-01-27T15:20:49.696Z,5.80
2019-01-27T15:23:18.277Z,5.70
2019-01-27T15:25:46.877Z,5.70
2019-01-27T15:28:15.708Z,5.70
2019-01-27T15:30:44.267Z,5.70
2019-01-27T15:33:12.693Z,5.70
2019-01-27T15:35:41.470Z,5.70
2019-01-27T15:38:10.009Z,5.80
2019-01-27T15:40:39.034Z,5.70
2019-01-27T15:43:07.449Z,5.70
2019-01-27T15:45:35.839Z,5.70
2019-01-27T15:48:05.429Z,5.70
2019-01-27T15:50:35.863Z,5.60
2019-01-27T15:53:05.883Z,5.60
2019-01-27T15:55:36.851Z,5.50
2019-01-27T15:58:05.313Z,5.50
2019-01-27T16:00:34.057Z,5.40
2019-01-27T16:03:02.558Z,5.30
2019-01-27T16:05:31.105Z,5.00
2019-01-27T16:07:59.546Z,4.50
2019-01-27T16:10:28.941Z,4.30
2019-01-27T16:12:58.028Z,4.10
2019-01-27T16:15:35.435Z,4.00
2019-01-27T16:18:05.046Z,4.00
2019-01-27T16:20:33.525Z,4.00
2019-01-27T16:23:21.797Z,4.10
2019-01-27T16:25:50.547Z,4.10
2019-01-27T16:28:19.345Z,4.10
2019-01-27T16:31:04.456Z,4.10
2019-01-27T16:33:34.802Z,4.10
2019-01-27T16:36:03.377Z,4.10
2019-01-27T16:38:31.817Z,4.00
2019-01-27T16:41:00.669Z,3.90
2019-01-27T16:43:29.651Z,3.90
2019-01-27T16:45:58.131Z,3.90
2019-01-27T16:48:26.589Z,3.90
2019-01-27T16:50:55.166Z,3.80
2019-01-27T16:53:23.565Z,3.80
2019-01-27T16:55:51.974Z,3.80
2019-01-27T16:58:20.446Z,3.80
2019-01-27T17:00:48.833Z,3.80
2019-01-27T17:03:17.292Z,3.70
2019-01-27T17:05:46.124Z,3.70
2019-01-27T17:08:14.557Z,3.60
2019-01-27T17:10:43.069Z,3.50
2019-01-27T17:13:13.602Z,3.40
2019-01-27T17:15:42.397Z,3.30
2019-01-27T17:18:11.152Z,3.30
2019-01-27T17:20:39.726Z,3.20
2019-01-27T17:23:08.535Z,3.20
2019-01-27T17:25:37.031Z,3.20
2019-01-27T17:28:17.606Z,3.20
2019-01-27T17:30:46.588Z,3.20
2019-01-27T17:33:15.425Z,3.20
2019-01-27T17:35:44.231Z,3.20
2019-01-27T17:38:12.648Z,3.10
2019-01-27T21:04:20.985Z,2.10
2019-01-27T21:06:51.119Z,2.00
2019-01-27T21:09:41.489Z,1.90
2019-01-27T21:12:22.616Z,1.80
2019-01-27T21:14:52.649Z,1.70
2019-01-27T21:17:22.689Z,1.70
2019-01-27T21:19:51.158Z,1.60
2019-01-27T21:22:19.568Z,1.60
2019-01-27T21:24:48.034Z,1.60
2019-01-27T21:27:16.702Z,1.70
2019-01-27T21:29:45.339Z,1.70
2019-01-27T21:32:13.734Z,1.70
2019-01-27T21:34:42.148Z,1.70
2019-01-27T21:37:10.534Z,1.80
2019-01-27T21:39:38.959Z,1.80
2019-01-27T21:42:07.411Z,1.80
2019-01-27T21:44:35.804Z,1.90
2019-01-27T21:47:04.331Z,1.90
2019-01-27T21:49:32.734Z,1.90
2019-01-27T21:52:02.166Z,1.90
2019-01-27T21:54:30.566Z,1.90
2019-01-27T21:56:58.954Z,2.00
2019-01-27T21:59:27.349Z,2.00
2019-01-27T22:01:55.983Z,2.00
2019-01-27T22:04:24.377Z,2.00
2019-01-27T22:06:53.002Z,2.00
2019-01-27T22:09:21.418Z,2.00
2019-01-27T22:11:50.126Z,2.00
2019-01-27T22:14:18.521Z,2.00
2019-01-27T22:16:46.912Z,2.00
2019-01-27T22:19:15.322Z,2.00
2019-01-27T22:21:43.714Z,1.90
2019-01-27T22:24:12.112Z,2.00
2019-01-27T22:26:40.503Z,2.00
2019-01-27T22:29:08.905Z,1.90
2019-01-27T22:31:37.525Z,1.90
2019-01-27T22:34:06.209Z,2.00
2019-01-27T22:36:34.797Z,1.90
2019-01-27T22:39:05.138Z,1.90
2019-01-27T22:41:33.534Z,1.90
2019-01-27T22:44:01.997Z,1.70
2019-01-27T22:46:30.403Z,1.60
2019-01-27T22:48:58.794Z,1.50
2019-01-27T22:51:27.185Z,1.50
2019-01-27T22:53:55.589Z,1.40
2019-01-27T22:56:24.047Z,1.40
2019-01-27T22:58:52.661Z,1.40
2019-01-27T23:01:21.358Z,1.40
2019-01-27T23:03:50.130Z,1.50
2019-01-27T23:06:18.783Z,1.50
2019-01-27T23:08:47.232Z,1.60
2019-01-27T23:11:15.650Z,1.60
2019-01-27T23:13:44.041Z,1.60
2019-01-27T23:16:12.706Z,1.70
2019-01-27T23:18:41.107Z,1.70
2019-01-27T23:21:09.579Z,1.70
2019-01-27T23:23:38.648Z,1.70
2019-01-27T23:26:07.315Z,1.80
2019-01-27T23:28:35.930Z,1.80
2019-01-27T23:31:04.468Z,1.80
2019-01-27T23:33:32.854Z,1.80
2019-01-27T23:36:01.265Z,1.80
2019-01-27T23:38:29.648Z,1.80
2019-01-27T23:40:58.047Z,1.80
2019-01-27T23:43:26.678Z,1.80
2019-01-27T23:45:55.073Z,1.80
2019-01-27T23:48:23.693Z,1.80
2019-01-27T23:50:52.335Z,1.80
2019-01-27T23:53:20.829Z,1.80
2019-01-27T23:55:49.261Z,1.80
2019-01-27T23:58:18.264Z,1.80
